createdAt,value
2019-02-24T00:00:50.019Z,102870.64
2019-02-24T00:03:23.845Z,102864.00
2019-02-24T00:05:55.702Z,102868.50
2019-02-24T00:08:28.276Z,102868.27
2019-02-24T00:11:00.067Z,102863.73
2019-02-24T00:13:32.208Z,102860.08
2019-02-24T00:16:04.255Z,102853.06
2019-02-24T00:18:36.637Z,102857.27
2019-02-24T00:21:08.762Z,102853.00
2019-02-24T00:23:40.669Z,102853.66
2019-02-24T00:26:12.448Z,102851.94
2019-02-24T00:28:44.462Z,102850.13
2019-02-24T00:31:16.367Z,102848.56
2019-02-24T00:33:48.408Z,102850.88
2019-02-24T00:36:20.748Z,102850.60
2019-02-24T00:38:52.750Z,102853.62
2019-02-24T00:41:24.528Z,102850.08
2019-02-24T00:43:56.575Z,102850.75
2019-02-24T00:46:28.409Z,102848.50
2019-02-24T00:49:00.395Z,102844.28
2019-02-24T00:51:32.460Z,102844.41
2019-02-24T00:54:04.641Z,102845.58
2019-02-24T00:56:36.422Z,102843.24
2019-02-24T00:59:08.326Z,102845.89
2019-02-24T01:01:41.077Z,102839.00
2019-02-24T01:04:13.218Z,102831.24
2019-02-24T01:06:45.090Z,102823.83
2019-02-24T01:09:17.340Z,102815.73
2019-02-24T01:11:49.104Z,102821.61
2019-02-24T01:14:22.135Z,102820.02
2019-02-24T01:16:54.098Z,102818.74
2019-02-24T01:19:25.981Z,102810.62
2019-02-24T01:21:57.916Z,102813.77
2019-02-24T01:24:30.150Z,102804.25
2019-02-24T01:27:01.919Z,102792.87
2019-02-24T01:29:33.964Z,102795.20
2019-02-24T01:32:05.778Z,102793.55
2019-02-24T01:34:37.636Z,102793.98
2019-02-24T01:37:09.750Z,102793.88
2019-02-24T01:39:41.574Z,102789.38
2019-02-24T01:42:13.375Z,102785.59
2019-02-24T01:44:45.347Z,102794.50
2019-02-24T01:47:17.142Z,102792.00
2019-02-24T01:49:49.182Z,102790.03
2019-02-24T01:52:20.960Z,102788.86
2019-02-24T01:54:52.843Z,102787.52
2019-02-24T01:57:24.637Z,102783.02
2019-02-24T01:59:56.708Z,102774.55
2019-02-24T02:02:28.548Z,102782.56
2019-02-24T02:05:00.552Z,102778.87
2019-02-24T02:07:32.412Z,102778.92
2019-02-24T02:10:04.466Z,102780.90
2019-02-24T02:12:36.349Z,102773.33
2019-02-24T02:15:08.587Z,102780.65
2019-02-24T02:17:40.516Z,102775.77
2019-02-24T02:20:12.834Z,102768.47
2019-02-24T02:22:45.349Z,102764.41
2019-02-24T02:25:17.247Z,102753.21
2019-02-24T02:27:49.004Z,102748.36
2019-02-24T02:30:21.100Z,102751.09
2019-02-24T02:32:52.871Z,102748.56
2019-02-24T02:35:24.890Z,102749.97
2019-02-24T02:37:57.037Z,102748.80
2019-02-24T02:40:29.794Z,102732.28
2019-02-24T02:43:01.663Z,102728.92
2019-02-24T02:45:33.798Z,102716.32
2019-02-24T02:48:05.576Z,102705.72
2019-02-24T02:50:37.585Z,102702.45
2019-02-24T02:53:09.640Z,102697.56
2019-02-24T02:55:41.526Z,102700.27
2019-02-24T02:58:13.288Z,102692.97
2019-02-24T03:00:45.194Z,102684.06
2019-02-24T03:03:17.003Z,102681.75
2019-02-24T03:05:58.611Z,102690.61
2019-02-24T03:08:50.207Z,102673.91
2019-02-24T03:11:22.314Z,102677.18
2019-02-24T03:13:54.117Z,102667.59
2019-02-24T03:16:28.772Z,102665.89
2019-02-24T03:19:00.541Z,102664.63
2019-02-24T03:21:32.462Z,102672.62
2019-02-24T03:24:04.274Z,102663.17
2019-02-24T03:26:36.129Z,102660.05
2019-02-24T03:29:07.937Z,102661.61
2019-02-24T03:31:39.795Z,102658.06
2019-02-24T03:34:11.549Z,102638.62
2019-02-24T03:36:43.409Z,102635.66
2019-02-24T03:39:15.524Z,102638.33
2019-02-24T03:41:47.405Z,102634.48
2019-02-24T03:44:19.160Z,102633.23
2019-02-24T03:46:51.027Z,102631.03
2019-02-24T03:49:22.807Z,102634.34
2019-02-24T03:51:54.859Z,102639.16
2019-02-24T03:54:26.973Z,102634.50
2019-02-24T03:56:58.813Z,102622.95
2019-02-24T03:59:30.622Z,102622.91
2019-02-24T04:02:02.403Z,102609.09
2019-02-24T04:04:35.433Z,102607.04
2019-02-24T04:07:07.276Z,102605.05
2019-02-24T04:09:39.523Z,102604.70
2019-02-24T04:12:11.588Z,102606.09
2019-02-24T04:14:43.438Z,102610.05
2019-02-24T04:17:15.260Z,102606.16
2019-02-24T04:19:47.047Z,102601.92
2019-02-24T04:22:19.141Z,102595.38
2019-02-24T04:24:51.242Z,102584.98
2019-02-24T04:27:23.397Z,102578.25
2019-02-24T04:29:55.343Z,102587.60
2019-02-24T04:32:27.508Z,102589.55
2019-02-24T04:34:59.263Z,102591.22
2019-02-24T04:37:31.234Z,102585.76
2019-02-24T04:40:03.335Z,102587.03
2019-02-24T04:42:35.469Z,102588.70
2019-02-24T04:45:07.275Z,102586.09
2019-02-24T04:47:39.290Z,102598.69
2019-02-24T04:50:11.070Z,102588.25
2019-02-24T04:52:42.943Z,102590.41
2019-02-24T04:55:15.081Z,102581.24
2019-02-24T04:57:47.143Z,102572.36
2019-02-24T05:00:18.941Z,102552.09
2019-02-24T05:02:50.806Z,102553.75
2019-02-24T05:05:22.631Z,102549.06
2019-02-24T05:07:54.704Z,102554.28
2019-02-24T05:10:26.720Z,102547.48
2019-02-24T05:12:58.837Z,102541.74
2019-02-24T05:15:30.607Z,102539.70
2019-02-24T05:18:02.482Z,102546.05
2019-02-24T05:20:34.255Z,102545.66
2019-02-24T05:23:06.112Z,102543.92
2019-02-24T05:25:38.133Z,102539.13
2019-02-24T05:28:10.025Z,102530.92
2019-02-24T05:30:42.055Z,102528.04
2019-02-24T05:33:13.923Z,102529.22
2019-02-24T05:35:45.721Z,102535.19
2019-02-24T05:38:17.869Z,102533.62
2019-02-24T05:40:49.993Z,102542.30
2019-02-24T05:43:22.078Z,102558.20
2019-02-24T05:45:53.864Z,102550.04
2019-02-24T05:48:25.906Z,102557.80
2019-02-24T05:50:57.743Z,102556.16
2019-02-24T05:53:29.504Z,102557.80
2019-02-24T05:56:01.560Z,102563.41
2019-02-24T05:58:33.664Z,102563.83
2019-02-24T06:01:05.418Z,102577.59
2019-02-24T06:03:37.374Z,102572.66
2019-02-24T06:06:09.163Z,102561.84
2019-02-24T06:08:41.030Z,102568.75
2019-02-24T06:11:13.131Z,102565.42
2019-02-24T06:13:45.069Z,102560.77
2019-02-24T06:16:16.844Z,102571.92
2019-02-24T06:18:48.815Z,102577.08
2019-02-24T06:21:20.676Z,102572.45
2019-02-24T06:23:52.685Z,102579.91
2019-02-24T06:26:24.769Z,102585.92
2019-02-24T06:28:56.658Z,102590.37
2019-02-24T06:31:28.471Z,102589.45
2019-02-24T06:34:00.845Z,102586.80
2019-02-24T06:36:32.618Z,102590.77
2019-02-24T06:39:05.404Z,102592.89
2019-02-24T06:41:37.423Z,102586.84
2019-02-24T06:44:09.515Z,102583.11
2019-02-24T06:46:41.329Z,102577.81
2019-02-24T06:49:14.473Z,102571.72
2019-02-24T06:51:46.321Z,102568.81
2019-02-24T06:54:19.521Z,102580.54
2019-02-24T06:56:51.524Z,102574.45
2019-02-24T06:59:23.567Z,102577.12
2019-02-24T07:01:55.373Z,102578.28
2019-02-24T07:04:27.143Z,102581.86
2019-02-24T07:06:58.924Z,102576.58
2019-02-24T07:09:30.994Z,102573.73
2019-02-24T07:12:03.307Z,102564.27
2019-02-24T07:14:36.367Z,102575.28
2019-02-24T07:17:08.202Z,102565.96
2019-02-24T07:19:40.096Z,102559.88
2019-02-24T07:22:11.895Z,102570.42
2019-02-24T07:24:45.140Z,102567.47
2019-02-24T07:27:16.892Z,102565.84
2019-02-24T07:29:48.784Z,102552.38
2019-02-24T07:32:20.573Z,102559.66
2019-02-24T07:34:52.569Z,102551.86
2019-02-24T07:37:24.418Z,102548.80
2019-02-24T07:39:56.285Z,102552.73
2019-02-24T07:42:28.303Z,102539.73
2019-02-24T07:45:00.530Z,102536.44
2019-02-24T07:47:32.306Z,102539.67
2019-02-24T07:50:04.284Z,102539.72
2019-02-24T07:52:36.089Z,102529.41
2019-02-24T07:55:08.194Z,102531.48
2019-02-24T07:57:40.728Z,102527.23
2019-02-24T08:00:12.933Z,102532.89
2019-02-24T08:02:44.755Z,102529.88
2019-02-24T08:05:16.626Z,102529.76
2019-02-24T08:07:48.416Z,102530.16
2019-02-24T08:10:20.518Z,102535.13
2019-02-24T08:12:52.448Z,102531.51
2019-02-24T08:15:24.636Z,102536.02
2019-02-24T08:17:56.514Z,102532.22
2019-02-24T08:20:28.432Z,102527.96
2019-02-24T08:23:00.254Z,102521.04
2019-02-24T08:25:33.416Z,102520.12
2019-02-24T08:28:05.540Z,102513.29
2019-02-24T08:30:41.708Z,102512.44
2019-02-24T08:33:11.040Z,102519.83
2019-02-24T08:35:43.201Z,102515.12
2019-02-24T08:38:15.039Z,102519.50
2019-02-24T08:40:47.130Z,102516.07
2019-02-24T08:43:20.472Z,102522.13
2019-02-24T08:45:52.601Z,102516.50
2019-02-24T08:48:24.523Z,102524.75
2019-02-24T08:50:56.530Z,102523.02
2019-02-24T08:53:28.415Z,102525.18
2019-02-24T08:56:00.660Z,102525.66
2019-02-24T08:58:32.842Z,102530.39
2019-02-24T09:01:05.515Z,102534.74
2019-02-24T09:03:37.426Z,102534.75
2019-02-24T09:06:09.521Z,102525.64
2019-02-24T09:08:41.364Z,102524.36
2019-02-24T09:11:13.551Z,102529.97
2019-02-24T09:13:45.842Z,102521.33
2019-02-24T09:16:18.191Z,102525.23
2019-02-24T09:18:50.815Z,102521.34
2019-02-24T09:21:23.979Z,102518.73
2019-02-24T09:23:56.353Z,102519.16
2019-02-24T09:26:29.199Z,102510.45
2019-02-24T09:29:02.303Z,102509.98
2019-02-24T09:31:35.329Z,102505.13
2019-02-24T09:34:07.737Z,102501.53
2019-02-24T09:36:40.916Z,102505.73
2019-02-24T09:39:13.620Z,102506.64
2019-02-24T09:41:46.353Z,102496.62
2019-02-24T09:44:19.101Z,102497.23
2019-02-24T09:46:51.902Z,102494.66
2019-02-24T09:49:24.272Z,102489.91
2019-02-24T09:51:56.665Z,102490.28
2019-02-24T09:54:28.588Z,102500.38
2019-02-24T09:57:00.777Z,102488.66
2019-02-24T09:59:32.831Z,102489.08
2019-02-24T10:02:05.601Z,102489.97
2019-02-24T10:04:37.715Z,102490.82
2019-02-24T10:07:09.781Z,102486.45
2019-02-24T10:09:41.957Z,102478.64
2019-02-24T10:12:14.413Z,102478.64
2019-02-24T10:14:46.339Z,102472.59
2019-02-24T10:17:18.443Z,102480.06
2019-02-24T10:19:50.340Z,102474.36
2019-02-24T10:22:23.069Z,102478.37
2019-02-24T10:24:55.524Z,102475.84
2019-02-24T10:27:28.160Z,102471.94
2019-02-24T10:30:00.842Z,102469.78
2019-02-24T10:32:33.215Z,102470.61
2019-02-24T10:35:05.374Z,102467.11
2019-02-24T10:37:37.637Z,102460.62
2019-02-24T10:40:12.519Z,102461.91
2019-02-24T10:42:45.748Z,102461.36
2019-02-24T10:45:17.960Z,102454.30
2019-02-24T10:47:50.337Z,102454.23
2019-02-24T10:50:22.266Z,102450.02
2019-02-24T10:52:54.646Z,102453.03
2019-02-24T10:55:26.723Z,102447.06
2019-02-24T10:57:59.060Z,102445.28
2019-02-24T11:00:31.287Z,102450.53
2019-02-24T11:03:03.513Z,102457.03
2019-02-24T11:05:35.823Z,102441.64
2019-02-24T11:08:08.261Z,102440.58
2019-02-24T11:10:40.064Z,102440.22
2019-02-24T11:13:12.481Z,102428.91
2019-02-24T11:15:44.339Z,102431.78
2019-02-24T11:18:16.256Z,102439.94
2019-02-24T11:20:48.187Z,102432.92
2019-02-24T11:23:20.250Z,102429.94
2019-02-24T11:25:52.066Z,102432.02
2019-02-24T11:28:23.954Z,102437.55
2019-02-24T11:30:56.047Z,102434.31
2019-02-24T11:33:28.107Z,102439.34
2019-02-24T11:35:59.974Z,102433.92
2019-02-24T11:38:32.135Z,102424.91
2019-02-24T11:41:04.001Z,102425.25
2019-02-24T11:43:36.162Z,102428.14
2019-02-24T11:46:08.152Z,102427.18
2019-02-24T11:48:40.315Z,102420.54
2019-02-24T11:51:12.285Z,102421.80
2019-02-24T11:53:45.335Z,102416.61
2019-02-24T11:56:17.209Z,102408.16
2019-02-24T11:58:49.400Z,102407.95
2019-02-24T12:01:21.249Z,102406.17
2019-02-24T12:03:53.391Z,102408.84
2019-02-24T12:06:25.270Z,102408.47
2019-02-24T12:09:05.049Z,102402.52
2019-02-24T12:11:30.750Z,102397.69
2019-02-24T12:14:02.912Z,102403.13
2019-02-24T12:16:35.302Z,102399.27
2019-02-24T12:19:07.751Z,102400.52
2019-02-24T12:21:39.567Z,102396.55
2019-02-24T12:24:11.608Z,102398.27
2019-02-24T12:26:43.540Z,102398.75
2019-02-24T12:29:15.462Z,102393.71
2019-02-24T12:31:56.209Z,102403.27
2019-02-24T12:34:21.585Z,102408.23
2019-02-24T12:36:53.385Z,102410.09
2019-02-24T12:39:25.680Z,102413.88
2019-02-24T12:41:57.649Z,102407.23
2019-02-24T12:44:29.781Z,102408.84
2019-02-24T12:47:01.966Z,102406.06
2019-02-24T12:49:34.178Z,102404.95
2019-02-24T12:52:06.806Z,102399.67
2019-02-24T12:54:39.053Z,102394.83
2019-02-24T12:57:10.863Z,102404.23
2019-02-24T12:59:43.370Z,102401.41
2019-02-24T13:02:16.091Z,102406.08
2019-02-24T13:04:48.528Z,102399.22
2019-02-24T13:07:20.489Z,102395.05
2019-02-24T13:09:52.500Z,102396.49
2019-02-24T13:12:24.340Z,102386.86
2019-02-24T13:14:56.403Z,102386.56
2019-02-24T13:17:28.172Z,102386.72
2019-02-24T13:20:00.346Z,102393.52
2019-02-24T13:22:32.417Z,102384.84
2019-02-24T13:25:04.640Z,102385.64
2019-02-24T13:27:36.532Z,102392.34
2019-02-24T13:30:09.241Z,102390.64
2019-02-24T13:32:41.577Z,102393.63
2019-02-24T13:35:14.645Z,102380.91
2019-02-24T13:37:47.731Z,102375.46
2019-02-24T13:40:20.633Z,102383.70
2019-02-24T13:42:52.873Z,102386.88
2019-02-24T13:45:26.865Z,102387.34
2019-02-24T13:47:58.871Z,102389.55
2019-02-24T13:50:30.964Z,102386.74
2019-02-24T13:53:03.247Z,102377.31
2019-02-24T13:55:35.685Z,102377.64
2019-02-24T13:58:07.523Z,102383.84
2019-02-24T14:00:39.804Z,102369.67
2019-02-24T14:03:12.039Z,102367.94
2019-02-24T14:05:44.019Z,102365.81
2019-02-24T14:08:15.947Z,102368.70
2019-02-24T14:10:48.181Z,102377.83
2019-02-24T14:13:20.122Z,102379.99
2019-02-24T14:15:52.585Z,102376.98
2019-02-24T14:18:24.909Z,102372.48
2019-02-24T14:20:57.217Z,102364.91
2019-02-24T14:23:29.265Z,102358.47
2019-02-24T14:26:01.426Z,102361.16
2019-02-24T14:28:33.337Z,102352.02
2019-02-24T14:31:05.563Z,102364.45
2019-02-24T14:33:37.880Z,102375.12
2019-02-24T14:36:11.323Z,102362.08
2019-02-24T14:38:43.400Z,102368.55
2019-02-24T14:41:15.385Z,102375.27
2019-02-24T14:43:47.339Z,102384.28
2019-02-24T14:46:19.345Z,102375.47
2019-02-24T14:48:51.137Z,102378.55
2019-02-24T14:51:23.266Z,102375.50
2019-02-24T14:53:55.055Z,102358.83
2019-02-24T14:56:27.327Z,102355.49
2019-02-24T14:58:59.461Z,102348.75
2019-02-24T15:01:31.882Z,102339.63
2019-02-24T15:04:03.900Z,102342.53
2019-02-24T15:06:36.539Z,102360.98
2019-02-24T15:09:09.405Z,102367.10
2019-02-24T15:11:42.278Z,102375.26
2019-02-24T15:14:14.120Z,102366.88
2019-02-24T15:16:46.327Z,102356.39
2019-02-24T15:19:18.646Z,102349.95
2019-02-24T15:21:50.843Z,102340.16
2019-02-24T15:24:22.670Z,102331.38
2019-02-24T15:26:54.779Z,102332.42
2019-02-24T15:29:26.609Z,102330.48
2019-02-24T15:31:58.604Z,102336.20
2019-02-24T15:34:30.971Z,102352.44
2019-02-24T15:37:03.154Z,102358.69
2019-02-24T15:39:35.114Z,102352.14
2019-02-24T15:42:07.490Z,102354.04
2019-02-24T15:44:39.433Z,102352.94
2019-02-24T15:47:11.713Z,102354.56
2019-02-24T15:49:43.786Z,102331.99
2019-02-24T15:52:16.439Z,102352.61
2019-02-24T15:54:48.322Z,102353.91
2019-02-24T15:57:20.488Z,102346.78
2019-02-24T15:59:52.460Z,102337.45
2019-02-24T16:02:24.772Z,102323.84
2019-02-24T16:04:57.055Z,102333.42
2019-02-24T16:07:29.275Z,102338.15
2019-02-24T16:10:01.413Z,102349.04
2019-02-24T16:12:33.792Z,102352.64
2019-02-24T16:15:06.621Z,102349.72
2019-02-24T16:17:39.078Z,102346.23
2019-02-24T16:20:17.026Z,102340.58
2019-02-24T16:22:49.995Z,102346.80
2019-02-24T16:25:22.199Z,102351.67
2019-02-24T16:27:54.620Z,102333.92
2019-02-24T16:30:26.773Z,102334.84
2019-02-24T16:33:00.046Z,102327.14
2019-02-24T16:35:32.041Z,102328.55
2019-02-24T16:38:04.084Z,102335.07
2019-02-24T16:40:36.299Z,102329.87
2019-02-24T16:43:08.877Z,102329.05
2019-02-24T16:45:41.787Z,102332.48
2019-02-24T16:48:13.982Z,102345.03
2019-02-24T16:50:45.942Z,102351.98
2019-02-24T16:53:18.157Z,102356.35
2019-02-24T16:55:50.248Z,102362.41
2019-02-24T16:58:23.846Z,102365.03
2019-02-24T17:00:56.073Z,102363.41
2019-02-24T17:03:28.381Z,102364.27
2019-02-24T17:06:00.350Z,102358.66
2019-02-24T17:08:32.735Z,102355.64
2019-02-24T17:11:07.454Z,102349.64
2019-02-24T17:13:38.591Z,102347.91
2019-02-24T17:16:10.778Z,102353.17
2019-02-24T17:18:43.075Z,102343.22
2019-02-24T17:21:15.449Z,102338.88
2019-02-24T17:23:50.138Z,102347.98
2019-02-24T17:26:21.446Z,102344.09
2019-02-24T17:28:54.160Z,102337.63
2019-02-24T17:31:28.628Z,102322.89
2019-02-24T17:34:01.498Z,102336.30
2019-02-24T17:36:35.167Z,102342.78
2019-02-24T17:39:10.010Z,102338.88
2019-02-24T17:41:44.017Z,102346.69
2019-02-24T17:44:16.568Z,102341.53
2019-02-24T17:46:50.462Z,102344.58
2019-02-24T17:49:22.662Z,102337.65
2019-02-24T17:51:54.673Z,102337.65
2019-02-24T17:54:26.965Z,102340.74
2019-02-24T17:56:59.763Z,102335.95
2019-02-24T17:59:40.131Z,102329.06
2019-02-24T18:02:07.920Z,102323.02
2019-02-24T18:04:40.786Z,102313.52
2019-02-24T18:07:14.315Z,102315.66
2019-02-24T18:09:47.559Z,102320.45
2019-02-24T18:12:21.159Z,102313.11
2019-02-24T18:14:54.581Z,102319.60
2019-02-24T18:17:28.571Z,102314.41
2019-02-24T18:20:03.927Z,102324.35
2019-02-24T18:22:39.188Z,102307.50
2019-02-24T18:25:14.406Z,102314.85
2019-02-24T18:27:48.348Z,102322.23
2019-02-24T18:30:26.767Z,102320.08
2019-02-24T18:33:00.390Z,102317.48
2019-02-24T18:35:35.011Z,102310.98
2019-02-24T18:38:09.221Z,102313.58
2019-02-24T18:40:43.891Z,102311.87
2019-02-24T18:43:18.083Z,102297.59
2019-02-24T18:45:51.792Z,102290.24
2019-02-24T18:48:25.935Z,102295.44
2019-02-24T18:51:00.694Z,102295.44
2019-02-24T18:53:35.400Z,102296.73
2019-02-24T18:56:09.906Z,102291.95
2019-02-24T18:58:44.673Z,102288.09
2019-02-24T19:01:19.827Z,102292.39
2019-02-24T19:03:57.802Z,102289.39
2019-02-24T19:06:38.941Z,102280.30
2019-02-24T19:09:09.963Z,102285.05
2019-02-24T19:11:44.949Z,102288.95
2019-02-24T19:14:19.963Z,102291.95
2019-02-24T19:16:57.135Z,102283.75
2019-02-24T19:19:31.580Z,102279.83
2019-02-24T19:22:07.938Z,102280.72
2019-02-24T19:24:43.037Z,102269.86
2019-02-24T19:27:17.610Z,102273.75
2019-02-24T19:29:52.040Z,102266.37
2019-02-24T19:32:27.174Z,102264.22
2019-02-24T19:35:03.066Z,102263.77
2019-02-24T19:37:37.382Z,102264.22
2019-02-24T19:40:13.821Z,102257.72
2019-02-24T19:42:50.851Z,102263.77
2019-02-24T19:45:25.177Z,102258.58
2019-02-24T19:47:59.306Z,102272.45
2019-02-24T19:50:33.947Z,102268.55
2019-02-24T19:53:09.386Z,102265.92
2019-02-24T19:55:45.637Z,102267.66
2019-02-24T19:58:20.364Z,102269.41
2019-02-24T20:00:55.911Z,102262.92
2019-02-24T20:03:30.922Z,102251.27
2019-02-24T20:06:05.369Z,102244.34
2019-02-24T20:08:40.357Z,102244.78
2019-02-24T20:11:14.591Z,102242.59
2019-02-24T20:13:49.335Z,102237.84
2019-02-24T20:16:24.673Z,102234.80
2019-02-24T20:18:59.162Z,102224.02
2019-02-24T20:21:33.639Z,102222.27
2019-02-24T20:24:08.602Z,102213.17
2019-02-24T20:26:43.025Z,102215.33
2019-02-24T20:29:18.395Z,102228.75
2019-02-24T20:31:52.902Z,102239.09
2019-02-24T20:34:28.245Z,102244.30
2019-02-24T20:37:03.328Z,102250.78
2019-02-24T20:39:38.308Z,102269.85
2019-02-24T20:42:12.555Z,102259.02
2019-02-24T20:44:47.103Z,102255.12
2019-02-24T20:47:22.687Z,102251.63
2019-02-24T20:49:57.669Z,102243.40
2019-02-24T20:52:34.058Z,102241.69
2019-02-24T20:55:09.564Z,102235.64
2019-02-24T20:57:44.152Z,102241.69
2019-02-24T21:00:35.317Z,102237.36
2019-02-24T21:03:09.438Z,102235.64
2019-02-24T21:05:44.963Z,102238.64
2019-02-24T21:08:19.326Z,102230.86
2019-02-24T21:10:54.222Z,102236.48
2019-02-24T21:13:28.617Z,102233.45
2019-02-24T21:16:03.656Z,102230.41
2019-02-24T21:18:37.584Z,102229.99
2019-02-24T21:21:12.221Z,102230.00
2019-02-24T21:23:46.651Z,102223.50
2019-02-24T21:26:21.191Z,102224.81
2019-02-24T21:28:56.783Z,102214.83
2019-02-24T21:31:31.841Z,102210.92
2019-02-24T21:34:06.871Z,102203.98
2019-02-24T21:36:42.186Z,102207.48
2019-02-24T21:39:16.486Z,102217.01
2019-02-24T21:41:51.332Z,102214.87
2019-02-24T21:44:25.795Z,102213.13
2019-02-24T21:47:00.795Z,102205.78
2019-02-24T21:49:34.377Z,102197.10
2019-02-24T21:52:09.306Z,102209.67
2019-02-24T21:54:42.668Z,102210.52
2019-02-24T21:57:16.217Z,102210.53
2019-02-24T21:59:49.299Z,102209.22
2019-02-24T22:02:23.391Z,102211.82
2019-02-24T22:04:56.182Z,102217.01
2019-02-24T22:07:28.769Z,102216.55
2019-02-24T22:10:01.265Z,102214.37
2019-02-24T22:12:34.901Z,102207.42
2019-02-24T22:15:09.782Z,102205.70
2019-02-24T22:17:42.386Z,102210.47
2019-02-24T22:20:16.760Z,102208.30
2019-02-24T22:22:49.193Z,102206.57
2019-02-24T22:25:21.276Z,102204.88
2019-02-24T22:27:54.550Z,102210.06
2019-02-24T22:30:26.759Z,102206.58
2019-02-24T22:32:58.664Z,102210.06
2019-02-24T22:35:30.527Z,102206.58
2019-02-24T22:38:02.405Z,102207.47
2019-02-24T22:40:34.260Z,102213.91
2019-02-24T22:43:06.408Z,102201.39
2019-02-24T22:45:38.274Z,102203.57
2019-02-24T22:48:10.333Z,102207.03
2019-02-24T22:50:42.124Z,102198.39
2019-02-24T22:53:14.259Z,102191.05
2019-02-24T22:55:46.075Z,102194.50
2019-02-24T22:58:17.959Z,102195.38
2019-02-24T23:01:24.457Z,102196.69
2019-02-24T23:04:06.381Z,102198.44
2019-02-24T23:06:38.260Z,102189.77
2019-02-24T23:09:19.613Z,102192.41
2019-02-24T23:11:51.458Z,102188.07
2019-02-24T23:14:25.041Z,102185.52
2019-02-24T23:16:57.181Z,102181.63
2019-02-24T23:19:29.294Z,102174.69
2019-02-24T23:22:01.078Z,102169.50
2019-02-24T23:24:33.044Z,102169.09
2019-02-24T23:27:04.869Z,102160.88
2019-02-24T23:29:36.886Z,102159.16
2019-02-24T23:32:10.203Z,102156.13
2019-02-24T23:34:42.423Z,102151.38
2019-02-24T23:37:14.190Z,102151.84
2019-02-24T23:39:46.236Z,102157.02
2019-02-24T23:42:18.090Z,102163.95
2019-02-24T23:44:50.014Z,102156.58
2019-02-24T23:47:22.187Z,102154.02
2019-02-24T23:49:54.308Z,102157.91
2019-02-24T23:52:26.082Z,102160.96
2019-02-24T23:54:58.020Z,102169.59
2019-02-24T23:57:29.855Z,102154.06
